Time;durP1;ratioP1;P1;durP2;ratioP2;P2;SDS_P1;SDS_P2;PMS_P1;PMS_P2;Temp;Humidity;BMP_temperature;BMP_pressure;BME280_temperature;BME280_humidity;BME280_pressure;Samples;Min_cycle;Max_cycle;Signal;HPM_P1;HPM_P2
2022/12/19 00:01:22;;;;;;;29.17;15.10;;;;;;;-1.92;83.38;102449.16;4964814;28;20209;-75
2022/12/19 00:03:52;;;;;;;29.07;14.93;;;;;;;-1.95;83.64;102448.84;4963431;28;20196;-75
2022/12/19 00:06:19;;;;;;;33.53;15.37;;;;;;;-1.96;83.67;102442.97;4964674;28;22319;-74
2022/12/19 00:08:46;;;;;;;28.00;14.17;;;;;;;-1.96;83.64;102437.94;4964400;28;20228;-75
2022/12/19 00:11:13;;;;;;;32.97;16.20;;;;;;;-1.98;84.01;102446.94;4961444;28;20452;-74
2022/12/19 00:13:39;;;;;;;28.73;14.67;;;;;;;-1.96;84.05;102447.09;4967881;28;20195;-74
2022/12/19 00:16:09;;;;;;;27.83;14.00;;;;;;;-2.02;84.00;102444.88;4947454;28;20952;-72
2022/12/19 00:18:35;;;;;;;29.77;15.13;;;;;;;-2.00;83.74;102435.88;4949342;28;20475;-74
2022/12/19 00:21:03;;;;;;;27.57;14.87;;;;;;;-2.00;83.87;102435.00;4966038;28;21260;-74
2022/12/19 00:23:32;;;;;;;33.27;16.43;;;;;;;-2.02;84.04;102437.34;4966963;28;20235;-74
2022/12/19 00:26:16;;;;;;;31.50;16.47;;;;;;;-2.01;83.79;102421.59;4962166;28;20197;-72
2022/12/19 00:28:44;;;;;;;27.10;14.60;;;;;;;-2.00;83.78;102419.94;4964074;28;20486;-75
2022/12/19 00:31:14;;;;;;;29.70;15.43;;;;;;;-2.03;83.64;102420.53;4964879;28;20883;-74
2022/12/19 00:33:41;;;;;;;31.23;15.43;;;;;;;-2.03;84.05;102423.03;4958165;28;20464;-74
2022/12/19 00:36:11;;;;;;;32.60;15.13;;;;;;;-2.06;83.83;102411.84;4963415;28;20200;-74
2022/12/19 00:38:37;;;;;;;33.40;16.00;;;;;;;-2.04;84.20;102407.84;4964266;28;20913;-75
2022/12/19 00:41:07;;;;;;;34.87;16.20;;;;;;;-2.04;83.82;102405.34;4961390;28;20536;-74
2022/12/19 00:43:34;;;;;;;34.90;15.63;;;;;;;-2.06;83.98;102401.81;4964679;28;20212;-75
2022/12/19 00:46:09;;;;;;;31.20;15.10;;;;;;;-2.05;83.61;102401.06;4943921;28;20452;-75
2022/12/19 00:48:35;;;;;;;31.73;15.90;;;;;;;-2.06;83.77;102402.69;4964821;28;20476;-72
2022/12/19 00:51:04;;;;;;;29.33;16.10;;;;;;;-2.08;83.80;102399.16;4961078;28;20455;-74
2022/12/19 00:53:30;;;;;;;29.40;15.77;;;;;;;-2.09;84.07;102397.41;4963752;28;20443;-74
2022/12/19 00:55:56;;;;;;;30.47;15.20;;;;;;;-2.08;84.11;102391.63;4946567;28;20479;-72
2022/12/19 00:58:22;;;;;;;30.57;15.33;;;;;;;-2.08;84.28;102386.63;4962910;28;20235;-72
2022/12/19 01:00:48;;;;;;;28.50;15.03;;;;;;;-2.09;83.95;102394.00;4930023;28;20724;-75
2022/12/19 01:03:13;;;;;;;30.77;16.13;;;;;;;-2.09;84.16;102396.50;4964689;28;20619;-74
2022/12/19 01:05:39;;;;;;;27.17;14.90;;;;;;;-2.08;84.25;102400.75;4965269;28;20204;-75
2022/12/19 01:08:04;;;;;;;28.60;15.13;;;;;;;-2.08;83.88;102393.25;4961639;28;20280;-72
2022/12/19 01:10:30;;;;;;;27.47;14.17;;;;;;;-2.10;83.89;102393.13;4968245;28;20192;-72
2022/12/19 01:12:56;;;;;;;31.63;16.27;;;;;;;-2.09;84.16;102394.00;4967622;28;20760;-72
2022/12/19 01:15:21;;;;;;;29.17;14.73;;;;;;;-2.07;83.99;102392.53;4965965;28;20203;-75
2022/12/19 01:17:47;;;;;;;32.67;15.87;;;;;;;-2.09;84.07;102394.88;4957991;28;20263;-73
2022/12/19 01:20:20;;;;;;;28.77;14.97;;;;;;;-2.09;84.15;102391.47;4950667;28;20283;-72
2022/12/19 01:22:46;;;;;;;30.80;14.30;;;;;;;-2.09;83.96;102392.38;4969306;28;20447;-73
2022/12/19 01:25:12;;;;;;;28.60;15.27;;;;;;;-2.08;84.45;102389.13;4967150;28;20861;-73
2022/12/19 01:27:38;;;;;;;26.13;14.93;;;;;;;-2.06;84.79;102386.75;4967683;28;20475;-73
2022/12/19 01:30:05;;;;;;;27.07;14.67;;;;;;;-2.07;84.55;102385.00;4944867;28;20941;-73
2022/12/19 01:32:34;;;;;;;30.33;15.47;;;;;;;-2.05;84.68;102388.53;4951225;28;20546;-73
2022/12/19 01:34:59;;;;;;;32.50;16.03;;;;;;;-2.05;84.64;102384.41;4968238;28;20201;-73
2022/12/19 01:37:25;;;;;;;32.03;16.13;;;;;;;-2.03;85.05;102387.94;4968571;28;20486;-73
2022/12/19 01:39:50;;;;;;;26.80;14.63;;;;;;;-2.03;85.06;102375.38;4965993;28;20308;-73
2022/12/19 01:42:19;;;;;;;26.33;13.93;;;;;;;-2.03;85.07;102371.97;4963050;28;20705;-73
2022/12/19 01:45:13;;;;;;;27.40;14.97;;;;;;;-2.01;85.21;102366.41;4960802;28;20762;-73
2022/12/19 01:47:46;;;;;;;30.37;14.47;;;;;;;-2.03;85.15;102354.41;4943292;28;20562;-73
2022/12/19 01:50:25;;;;;;;25.93;14.20;;;;;;;-2.02;85.27;102357.06;4955088;28;20212;-72
2022/12/19 01:52:52;;;;;;;30.77;15.00;;;;;;;-2.02;85.44;102362.09;4950146;28;20200;-72
2022/12/19 01:55:19;;;;;;;31.23;15.00;;;;;;;-1.99;85.26;102364.91;4951814;28;20206;-73
2022/12/19 01:57:45;;;;;;;28.13;14.60;;;;;;;-1.99;85.43;102359.88;4945539;28;20468;-73
2022/12/19 02:00:11;;;;;;;24.70;14.43;;;;;;;-2.00;85.48;102347.19;4967578;28;20196;-73
2022/12/19 02:02:45;;;;;;;27.27;14.23;;;;;;;-1.96;85.43;102342.63;4952196;28;20484;-75
2022/12/19 02:05:10;;;;;;;29.20;14.90;;;;;;;-1.94;85.15;102335.19;4969921;28;20255;-75
2022/12/19 02:07:37;;;;;;;29.43;14.37;;;;;;;-1.95;85.50;102338.47;4947949;28;20243;-75
2022/12/19 02:10:03;;;;;;;29.83;15.13;;;;;;;-1.91;85.28;102340.50;4960568;28;20205;-75
2022/12/19 02:12:37;;;;;;;28.20;14.70;;;;;;;-1.87;85.28;102330.03;4953993;28;20942;-75
2022/12/19 02:15:05;;;;;;;30.03;14.83;;;;;;;-1.86;85.53;102329.28;4967682;28;20215;-74
2022/12/19 02:17:56;;;;;;;27.53;14.30;;;;;;;-1.87;85.31;102322.50;4947303;28;20247;-74
2022/12/19 02:20:41;;;;;;;30.30;15.03;;;;;;;-1.83;85.39;102322.03;4961962;28;20452;-73
2022/12/19 02:23:25;;;;;;;27.30;14.43;;;;;;;-1.82;85.39;102319.66;4972545;28;20206;-73
2022/12/19 02:26:06;;;;;;;24.20;13.37;;;;;;;-1.78;85.22;102305.75;4949740;28;20216;-73
2022/12/19 02:29:16;;;;;;;29.87;15.13;;;;;;;-1.76;85.60;102302.66;4950124;28;20963;-74
2022/12/19 02:31:52;;;;;;;26.40;14.07;;;;;;;-1.71;86.03;102293.00;4966295;28;20209;-74
2022/12/19 02:34:21;;;;;;;28.90;14.97;;;;;;;-1.68;87.00;102288.28;4968087;28;20204;-74
2022/12/19 02:37:02;;;;;;;29.23;15.07;;;;;;;-1.67;87.63;102288.44;4946624;28;20248;-74
2022/12/19 02:39:44;;;;;;;28.77;15.20;;;;;;;-1.63;87.91;102295.50;4971810;28;20259;-75
2022/12/19 02:42:14;;;;;;;31.50;15.00;;;;;;;-1.62;89.07;102282.19;4967575;28;20207;-75
2022/12/19 02:44:44;;;;;;;25.80;14.77;;;;;;;-1.59;89.39;102281.56;4949242;28;20192;-73
2022/12/19 02:47:12;;;;;;;25.70;14.33;;;;;;;-1.59;89.05;102279.06;4976826;28;20212;-74
2022/12/19 02:49:37;;;;;;;25.43;13.77;;;;;;;-1.59;89.61;102279.97;4948727;28;20654;-74
2022/12/19 02:52:32;;;;;;;27.40;14.87;;;;;;;-1.54;90.43;102277.84;4967523;28;20267;-75
2022/12/19 02:55:06;;;;;;;24.57;13.03;;;;;;;-1.51;90.08;102273.13;4952299;28;20197;-73
2022/12/19 02:57:41;;;;;;;31.77;15.63;;;;;;;-1.49;90.18;102267.47;4967151;28;20211;-76
2022/12/19 03:00:13;;;;;;;28.90;15.13;;;;;;;-1.47;90.15;102276.03;4967429;28;20219;-74
2022/12/19 03:02:39;;;;;;;32.83;16.30;;;;;;;-1.43;90.51;102274.66;4966706;28;20708;-75
2022/12/19 03:05:13;;;;;;;28.23;15.57;;;;;;;-1.40;90.43;102278.34;4963560;28;20295;-73
2022/12/19 03:07:51;;;;;;;28.17;15.70;;;;;;;-1.39;90.44;102277.59;4968908;28;20242;-74
2022/12/19 03:10:44;;;;;;;30.63;16.17;;;;;;;-1.37;91.13;102276.09;4943142;28;20557;-74
2022/12/19 03:13:12;;;;;;;30.23;15.63;;;;;;;-1.34;90.69;102267.94;4946135;28;20193;-75
2022/12/19 03:15:39;;;;;;;27.60;14.63;;;;;;;-1.30;90.80;102257.44;4965682;28;20196;-75
2022/12/19 03:18:05;;;;;;;29.03;15.00;;;;;;;-1.29;90.48;102250.03;4966211;28;20236;-74
2022/12/19 03:21:06;;;;;;;29.30;15.27;;;;;;;-1.29;91.08;102237.47;4965438;28;20208;-75
2022/12/19 03:23:31;;;;;;;28.73;15.63;;;;;;;-1.23;90.98;102232.13;4962465;28;20220;-74
2022/12/19 03:26:02;;;;;;;31.27;15.80;;;;;;;-1.22;90.52;102222.22;4962373;28;20678;-74
2022/12/19 03:28:54;;;;;;;28.90;15.73;;;;;;;-1.19;90.78;102219.94;4965440;28;20224;-75
2022/12/19 03:31:28;;;;;;;25.03;14.20;;;;;;;-1.14;90.81;102215.34;4955645;28;20237;-74
2022/12/19 03:34:00;;;;;;;24.37;14.87;;;;;;;-1.14;90.83;102217.84;4947934;28;20678;-75
2022/12/19 03:36:39;;;;;;;40.20;15.90;;;;;;;-1.11;91.33;102218.09;4956668;28;20192;-75
2022/12/19 03:39:08;;;;;;;28.57;15.73;;;;;;;-1.10;90.76;102219.88;4964449;28;20220;-74
2022/12/19 03:44:22;;;;;;;28.63;15.33;;;;;;;-1.08;91.28;102215.88;4967256;28;20639;-74
2022/12/19 03:46:59;;;;;;;25.47;14.30;;;;;;;-1.10;91.29;102212.34;4960513;28;20231;-75
2022/12/19 03:49:25;;;;;;;26.63;15.00;;;;;;;-1.09;92.02;102202.41;4964519;28;20288;-74
2022/12/19 03:52:04;;;;;;;29.73;15.30;;;;;;;-1.09;91.43;102214.09;4959275;28;20283;-73
2022/12/19 03:54:38;;;;;;;25.43;15.10;;;;;;;-1.07;91.82;102203.44;4960846;28;20200;-74
2022/12/19 03:57:32;;;;;;;27.67;15.53;;;;;;;-1.07;92.01;102212.59;4964030;28;20212;-75
2022/12/19 04:00:05;;;;;;;25.67;14.87;;;;;;;-1.05;92.32;102216.13;4948724;28;20192;-76
2022/12/19 04:02:41;;;;;;;26.10;14.03;;;;;;;-1.01;91.75;102219.03;4966557;28;20231;-72
2022/12/19 04:05:14;;;;;;;29.17;15.27;;;;;;;-1.03;92.29;102214.63;4962048;28;20260;-72
2022/12/19 04:07:41;;;;;;;28.77;15.13;;;;;;;-1.01;92.25;102200.59;4967454;28;20226;-74
2022/12/19 04:10:11;;;;;;;30.43;15.43;;;;;;;-0.97;91.87;102192.53;4950295;28;20571;-75
2022/12/19 04:12:40;;;;;;;28.10;15.47;;;;;;;-0.98;92.16;102185.75;4949196;28;20294;-72
2022/12/19 04:15:07;;;;;;;28.47;15.17;;;;;;;-0.97;91.72;102175.84;4964771;28;20200;-72
2022/12/19 04:17:50;;;;;;;28.57;15.37;;;;;;;-0.92;92.43;102171.22;4966775;28;20223;-75
2022/12/19 04:20:21;;;;;;;26.90;15.07;;;;;;;-0.91;92.39;102160.41;4944742;28;20243;-75
2022/12/19 04:23:08;;;;;;;25.33;15.27;;;;;;;-0.88;92.35;102163.16;4957500;28;20251;-73
2022/12/19 04:25:41;;;;;;;26.00;14.33;;;;;;;-0.87;92.41;102163.31;4962606;28;20192;-74
2022/12/19 04:28:17;;;;;;;26.73;15.30;;;;;;;-0.84;91.74;102158.53;4965728;28;20229;-75
2022/12/19 04:30:43;;;;;;;26.53;14.60;;;;;;;-0.85;92.05;102151.75;4964786;28;20231;-75
2022/12/19 04:33:09;;;;;;;26.87;14.97;;;;;;;-0.83;92.20;102141.84;4942020;28;20212;-76
2022/12/19 04:35:35;;;;;;;24.90;14.43;;;;;;;-0.79;91.98;102143.84;4968300;28;20196;-76
2022/12/19 04:38:00;;;;;;;28.27;15.43;;;;;;;-0.77;91.52;102147.38;4942879;28;20385;-75
2022/12/19 04:40:26;;;;;;;25.63;14.70;;;;;;;-0.75;92.24;102129.16;4963368;28;20705;-75
2022/12/19 04:42:52;;;;;;;26.53;14.70;;;;;;;-0.72;92.27;102129.41;4961360;28;20255;-74
2022/12/19 04:45:17;;;;;;;26.57;14.90;;;;;;;-0.68;91.49;102123.03;4961217;28;20578;-74
2022/12/19 04:47:42;;;;;;;26.07;14.57;;;;;;;-0.70;91.43;102127.91;4965020;28;20685;-74
2022/12/19 04:50:08;;;;;;;26.17;15.07;;;;;;;-0.66;91.46;102121.50;4943284;28;20211;-75
2022/12/19 04:52:34;;;;;;;25.03;14.83;;;;;;;-0.64;91.63;102120.00;4967733;28;20192;-74
2022/12/19 04:54:59;;;;;;;24.03;14.03;;;;;;;-0.63;92.35;102111.72;4960428;28;20275;-74
2022/12/19 04:57:28;;;;;;;26.43;14.73;;;;;;;-0.61;91.82;102105.16;4967917;28;20205;-74
2022/12/19 04:59:54;;;;;;;23.60;14.27;;;;;;;-0.58;92.32;102101.28;4965025;28;20207;-75
2022/12/19 05:02:19;;;;;;;25.97;14.17;;;;;;;-0.56;92.65;102097.25;4962671;28;20185;-74
2022/12/19 05:04:45;;;;;;;26.10;14.47;;;;;;;-0.54;92.01;102090.72;4966867;28;20724;-74
2022/12/19 05:07:12;;;;;;;23.13;13.77;;;;;;;-0.52;92.79;102085.81;4969974;28;20264;-74
2022/12/19 05:09:37;;;;;;;25.93;14.90;;;;;;;-0.52;92.28;102091.72;4965712;28;20200;-75
2022/12/19 05:12:03;;;;;;;24.67;13.83;;;;;;;-0.50;92.66;102082.66;4967770;28;20208;-74
2022/12/19 05:14:28;;;;;;;25.20;14.47;;;;;;;-0.47;93.02;102075.38;4967664;28;20194;-74
2022/12/19 05:16:54;;;;;;;23.53;14.57;;;;;;;-0.44;92.52;102083.19;4964591;28;20204;-74
2022/12/19 05:19:19;;;;;;;23.83;14.70;;;;;;;-0.45;92.98;102093.97;4967033;28;20689;-74
2022/12/19 05:21:45;;;;;;;24.77;14.47;;;;;;;-0.41;93.21;102095.16;4966563;28;20251;-75
2022/12/19 05:24:10;;;;;;;27.53;15.63;;;;;;;-0.39;92.96;102089.47;4947379;28;20200;-75
2022/12/19 05:26:36;;;;;;;23.57;14.50;;;;;;;-0.37;92.73;102085.44;4961650;28;20189;-75
2022/12/19 05:29:02;;;;;;;24.63;14.93;;;;;;;-0.34;93.60;102077.25;4970510;28;20192;-74
2022/12/19 05:31:27;;;;;;;27.30;14.43;;;;;;;-0.30;93.88;102067.59;4968890;28;20192;-75
2022/12/19 05:33:53;;;;;;;25.73;14.17;;;;;;;-0.26;94.17;102059.50;4964506;28;20231;-74
2022/12/19 05:36:18;;;;;;;26.93;14.83;;;;;;;-0.27;93.62;102047.69;4966002;28;20311;-74
2022/12/19 05:38:44;;;;;;;24.13;14.63;;;;;;;-0.24;93.89;102047.06;4970526;28;20240;-74
2022/12/19 05:41:16;;;;;;;21.10;13.30;;;;;;;-0.16;93.41;102043.53;4964843;28;20288;-74
2022/12/19 05:43:43;;;;;;;25.13;14.40;;;;;;;-0.20;93.95;102047.47;4967612;28;20200;-74
2022/12/19 05:46:08;;;;;;;23.43;15.77;;;;;;;-0.18;93.97;102052.63;4947650;28;20248;-74
2022/12/19 05:48:35;;;;;;;26.87;16.27;;;;;;;-0.16;93.60;102044.44;4967979;28;20240;-75
2022/12/19 05:51:00;;;;;;;26.77;15.13;;;;;;;-0.14;93.95;102050.44;4966195;28;20205;-75
2022/12/19 05:53:27;;;;;;;30.07;15.80;;;;;;;-0.07;94.55;102041.75;4969090;28;20208;-74
2022/12/19 05:56:05;;;;;;;24.67;14.47;;;;;;;-0.10;93.82;102044.03;4967437;28;20199;-75
2022/12/19 05:58:30;;;;;;;25.00;14.27;;;;;;;-0.06;94.74;102041.00;4969346;28;20306;-75
2022/12/19 06:01:01;;;;;;;23.03;13.87;;;;;;;-0.02;93.84;102032.94;4967058;28;20300;-74
2022/12/19 06:03:27;;;;;;;23.93;14.70;;;;;;;0.00;93.64;102033.97;4964892;28;20201;-74
2022/12/19 06:05:52;;;;;;;28.80;14.33;;;;;;;0.02;93.70;102034.94;4958585;28;20195;-74
2022/12/19 06:08:17;;;;;;;20.93;13.73;;;;;;;0.03;93.75;102026.63;4963148;28;20690;-74
2022/12/19 06:10:43;;;;;;;24.40;14.50;;;;;;;0.06;94.19;102030.25;4945207;28;20223;-74
2022/12/19 06:13:08;;;;;;;24.70;14.97;;;;;;;0.11;94.05;102023.09;4960563;28;20212;-74
2022/12/19 06:15:34;;;;;;;23.87;13.70;;;;;;;0.10;93.56;102022.19;4944997;28;20256;-75
2022/12/19 06:18:00;;;;;;;25.70;14.33;;;;;;;0.15;93.92;102015.91;4966471;28;20223;-73
2022/12/19 06:20:25;;;;;;;24.63;14.03;;;;;;;0.18;93.80;102008.59;4968390;28;20243;-75
2022/12/19 06:22:50;;;;;;;23.47;13.73;;;;;;;0.19;93.25;102000.28;4974844;28;20251;-74
2022/12/19 06:25:16;;;;;;;25.17;14.37;;;;;;;0.22;93.95;101993.75;4960379;28;20202;-74
2022/12/19 06:27:42;;;;;;;25.40;13.77;;;;;;;0.23;93.86;101974.59;4966260;28;20220;-74
2022/12/19 06:30:08;;;;;;;23.60;13.13;;;;;;;0.26;93.05;101976.47;4969592;28;20196;-74
2022/12/19 06:32:33;;;;;;;25.37;13.90;;;;;;;0.31;93.20;101965.09;4969991;28;20566;-75
2022/12/19 06:34:58;;;;;;;22.77;13.63;;;;;;;0.33;93.12;101966.97;4968196;28;20193;-75
2022/12/19 06:37:24;;;;;;;25.00;13.70;;;;;;;0.35;94.11;101962.06;4961676;28;20223;-75
2022/12/19 06:39:50;;;;;;;26.03;13.80;;;;;;;0.41;93.68;101964.19;4955990;28;20280;-75
2022/12/19 06:42:24;;;;;;;23.17;13.37;;;;;;;0.41;93.67;101964.19;4930795;28;20192;-74
2022/12/19 06:44:54;;;;;;;22.03;13.30;;;;;;;0.45;93.54;101968.69;4966899;28;20184;-74
2022/12/19 06:47:21;;;;;;;23.83;13.67;;;;;;;0.46;93.77;101983.91;4957314;28;20686;-73
2022/12/19 06:49:47;;;;;;;22.60;13.07;;;;;;;0.47;93.46;101984.03;4959066;28;20201;-75
2022/12/19 06:52:14;;;;;;;21.17;12.93;;;;;;;0.52;93.82;101985.25;4966422;28;20825;-75
2022/12/19 06:54:40;;;;;;;25.23;13.60;;;;;;;0.55;93.29;101979.56;4961977;28;20292;-74
2022/12/19 06:57:06;;;;;;;20.97;12.47;;;;;;;0.60;93.29;101980.84;4963815;28;20836;-75
2022/12/19 06:59:32;;;;;;;24.83;14.03;;;;;;;0.62;92.90;101980.94;4966982;28;20619;-74
2022/12/19 07:02:15;;;;;;;24.00;13.27;;;;;;;0.64;93.02;101979.44;4945827;28;20196;-74
2022/12/19 07:04:48;;;;;;;22.33;13.40;;;;;;;0.63;93.73;101972.63;4969695;28;20569;-75
2022/12/19 07:07:14;;;;;;;26.37;12.80;;;;;;;0.68;92.48;101968.81;4962608;28;20220;-74
2022/12/19 07:09:39;;;;;;;20.67;12.93;;;;;;;0.71;92.72;101962.38;4967488;28;20765;-75
2022/12/19 07:12:05;;;;;;;22.00;12.77;;;;;;;0.70;92.70;101965.66;4960141;28;20212;-75
2022/12/19 07:14:31;;;;;;;24.07;12.70;;;;;;;0.72;93.17;101968.28;4964968;28;20213;-75
2022/12/19 07:16:59;;;;;;;21.57;13.63;;;;;;;0.74;92.96;101966.75;4955371;28;20583;-75
2022/12/19 07:19:25;;;;;;;21.13;13.23;;;;;;;0.80;93.06;101972.25;4965050;28;20618;-75
2022/12/19 07:21:51;;;;;;;23.83;13.07;;;;;;;0.79;93.13;101955.38;4970269;28;20193;-75
2022/12/19 07:24:17;;;;;;;22.00;12.97;;;;;;;0.80;93.52;101955.50;4963145;28;20211;-75
2022/12/19 07:26:43;;;;;;;24.03;13.97;;;;;;;0.81;93.52;101957.25;4952464;28;20192;-74
2022/12/19 07:29:11;;;;;;;20.03;12.83;;;;;;;0.83;93.13;101960.75;4968188;28;20223;-74
2022/12/19 07:31:36;;;;;;;23.10;12.90;;;;;;;0.86;93.64;101953.44;4954886;28;20197;-74
2022/12/19 07:34:02;;;;;;;20.93;12.70;;;;;;;0.86;93.15;101950.91;4959099;28;20251;-75
2022/12/19 07:36:27;;;;;;;24.97;13.00;;;;;;;0.88;93.34;101951.94;4963202;28;20193;-74
2022/12/19 07:38:53;;;;;;;26.20;12.77;;;;;;;0.87;94.12;101950.16;4956754;28;20232;-74
2022/12/19 07:41:18;;;;;;;22.87;12.53;;;;;;;0.91;94.26;101947.09;4957113;28;20214;-74
2022/12/19 07:43:44;;;;;;;20.07;12.40;;;;;;;0.92;94.19;101945.47;4960943;28;20231;-74
2022/12/19 07:46:10;;;;;;;23.03;13.37;;;;;;;0.96;94.68;101948.31;4965057;28;20196;-75
2022/12/19 07:48:35;;;;;;;20.53;12.57;;;;;;;0.95;93.99;101946.56;4961188;28;20299;-74
2022/12/19 07:51:04;;;;;;;23.50;14.80;;;;;;;1.00;95.14;101949.44;4964759;28;20646;-74
2022/12/19 07:53:30;;;;;;;20.37;13.70;;;;;;;1.03;95.63;101947.13;4969098;28;20204;-75
2022/12/19 07:55:55;;;;;;;26.40;14.67;;;;;;;1.02;95.90;101948.78;4962791;28;20200;-75
2022/12/19 07:58:21;;;;;;;25.37;14.83;;;;;;;1.05;96.34;101953.19;4961004;28;20227;-75
2022/12/19 08:00:53;;;;;;;26.80;14.83;;;;;;;1.05;96.42;101953.19;4966746;28;20200;-74
2022/12/19 08:03:19;;;;;;;25.50;13.47;;;;;;;1.06;97.25;101949.88;4965851;28;20585;-74
2022/12/19 08:05:44;;;;;;;26.03;15.10;;;;;;;1.08;97.62;101953.38;4963372;28;20208;-74
2022/12/19 08:08:10;;;;;;;22.43;13.77;;;;;;;1.08;96.80;101946.72;4969275;28;20270;-74
2022/12/19 08:10:35;;;;;;;25.47;16.57;;;;;;;1.10;97.43;101941.78;4967400;28;20631;-74
2022/12/19 08:13:01;;;;;;;25.50;14.03;;;;;;;1.09;97.87;101945.09;4961872;28;20196;-74
2022/12/19 08:15:26;;;;;;;26.10;14.97;;;;;;;1.11;97.84;101944.44;4946756;28;20205;-74
2022/12/19 08:17:53;;;;;;;26.07;15.07;;;;;;;1.12;98.67;101952.84;4964052;28;20287;-73
2022/12/19 08:20:18;;;;;;;23.50;15.13;;;;;;;1.14;99.12;101952.19;4964572;28;20200;-75
2022/12/19 08:22:43;;;;;;;25.73;14.60;;;;;;;1.14;98.79;101951.34;4957682;28;20821;-74
2022/12/19 08:25:09;;;;;;;27.03;16.50;;;;;;;1.17;99.36;101949.03;4960829;28;20205;-74
2022/12/19 08:27:34;;;;;;;28.90;17.43;;;;;;;1.17;99.90;101951.56;4955921;28;20213;-74
2022/12/19 08:30:00;;;;;;;25.27;14.90;;;;;;;1.18;99.65;101949.16;4929695;28;20203;-73
2022/12/19 08:32:25;;;;;;;24.37;15.03;;;;;;;1.18;100.00;101949.16;4967118;28;20203;-74
2022/12/19 08:34:55;;;;;;;30.90;16.10;;;;;;;1.21;100.00;101938.41;4961605;28;20263;-74
2022/12/19 08:37:21;;;;;;;33.17;15.90;;;;;;;1.22;100.00;101927.53;4950658;28;20705;-74
2022/12/19 08:39:47;;;;;;;27.53;15.93;;;;;;;1.24;100.00;101929.41;4964768;28;20224;-74
2022/12/19 08:42:12;;;;;;;25.20;16.17;;;;;;;1.24;100.00;101921.00;4961472;28;20188;-75
2022/12/19 08:44:37;;;;;;;29.37;16.43;;;;;;;1.25;100.00;101916.06;4967614;28;20192;-74
2022/12/19 08:47:03;;;;;;;27.57;16.53;;;;;;;1.27;100.00;101916.16;4971140;28;20306;-75
2022/12/19 08:49:29;;;;;;;29.90;16.80;;;;;;;1.29;100.00;101910.44;4949050;28;20204;-74
2022/12/19 08:51:54;;;;;;;31.37;16.00;;;;;;;1.31;100.00;101903.88;4962896;28;20205;-74
2022/12/19 08:54:20;;;;;;;26.47;16.13;;;;;;;1.31;100.00;101906.41;4969066;28;20283;-74
2022/12/19 08:56:45;;;;;;;25.70;16.30;;;;;;;1.33;100.00;101899.81;4968217;28;20192;-74
2022/12/19 08:59:11;;;;;;;28.30;16.10;;;;;;;1.38;100.00;101902.69;4969679;28;20696;-74
2022/12/19 09:01:36;;;;;;;28.53;17.10;;;;;;;1.37;100.00;101906.00;4967531;28;20192;-73
2022/12/19 09:04:01;;;;;;;31.43;17.47;;;;;;;1.37;100.00;101904.31;4972115;28;20200;-74
2022/12/19 09:06:27;;;;;;;27.67;16.33;;;;;;;1.39;100.00;101899.41;4968436;28;20217;-74
2022/12/19 09:08:52;;;;;;;26.53;17.20;;;;;;;1.39;100.00;101901.91;4966789;28;20236;-74
2022/12/19 09:11:19;;;;;;;29.47;17.37;;;;;;;1.39;100.00;101890.19;4959974;28;20209;-75
2022/12/19 09:13:46;;;;;;;29.37;17.07;;;;;;;1.41;100.00;101895.31;4967116;28;20212;-74
2022/12/19 09:16:12;;;;;;;34.57;17.40;;;;;;;1.44;100.00;101895.56;4960873;28;20943;-75
2022/12/19 09:18:38;;;;;;;30.27;16.87;;;;;;;1.43;100.00;101899.75;4965492;28;20341;-75
2022/12/19 09:21:04;;;;;;;34.03;18.70;;;;;;;1.44;100.00;101898.09;4967620;28;20221;-75
2022/12/19 09:23:30;;;;;;;31.50;18.00;;;;;;;1.44;100.00;101898.97;4949424;28;20193;-75
2022/12/19 09:26:01;;;;;;;31.53;17.50;;;;;;;1.45;100.00;101899.81;4966532;28;20197;-74
2022/12/19 09:28:26;;;;;;;34.00;17.97;;;;;;;1.48;100.00;101898.44;4966129;28;20221;-74
2022/12/19 09:31:00;;;;;;;32.83;17.83;;;;;;;1.48;100.00;101893.38;4964114;28;20614;-74
2022/12/19 09:33:26;;;;;;;30.33;16.90;;;;;;;1.49;100.00;101890.09;4963116;28;20201;-74
2022/12/19 09:35:53;;;;;;;33.77;18.53;;;;;;;1.53;100.00;101881.06;4966537;28;20204;-74
2022/12/19 09:38:20;;;;;;;32.70;18.57;;;;;;;1.53;100.00;101886.13;4967523;28;20267;-74
2022/12/19 09:40:57;;;;;;;31.70;18.17;;;;;;;1.54;100.00;101883.72;4963300;28;20255;-74
2022/12/19 09:43:29;;;;;;;30.93;17.73;;;;;;;1.58;100.00;101884.81;4962991;28;20291;-75
2022/12/19 09:46:15;;;;;;;34.33;18.53;;;;;;;1.59;100.00;101877.34;4964755;28;20199;-75
2022/12/19 09:48:40;;;;;;;37.87;22.87;;;;;;;1.60;100.00;101871.53;4955940;28;20242;-73
2022/12/19 09:51:15;;;;;;;39.30;24.40;;;;;;;1.62;100.00;101869.13;4970087;28;20196;-74
2022/12/19 09:53:54;;;;;;;34.67;21.33;;;;;;;1.63;100.00;101870.88;4948052;28;20207;-74
2022/12/19 09:56:21;;;;;;;32.27;20.10;;;;;;;1.64;100.00;101868.47;4937323;28;20650;-74
2022/12/19 09:58:54;;;;;;;31.40;19.93;;;;;;;1.66;100.00;101864.38;4961489;28;20562;-73
2022/12/19 10:01:32;;;;;;;36.43;19.73;;;;;;;1.65;100.00;101851.69;4963925;28;20200;-73
2022/12/19 10:04:05;;;;;;;34.50;20.00;;;;;;;1.66;100.00;101858.47;4961909;28;20204;-74
2022/12/19 10:06:31;;;;;;;37.67;20.17;;;;;;;1.67;100.00;101853.53;4963970;28;20200;-73
2022/12/19 10:08:59;;;;;;;35.57;19.47;;;;;;;1.69;100.00;101846.94;4958086;28;20305;-74
2022/12/19 10:11:32;;;;;;;36.73;19.93;;;;;;;1.70;100.00;101848.69;4963674;28;20904;-71
2022/12/19 10:14:11;;;;;;;34.43;20.37;;;;;;;1.73;100.00;101848.91;4964827;28;20271;-75
2022/12/19 10:17:01;;;;;;;33.43;18.83;;;;;;;1.75;100.00;101842.31;4956976;28;20240;-75
2022/12/19 10:19:46;;;;;;;36.30;19.13;;;;;;;1.78;100.00;101836.59;4965958;28;20204;-72
2022/12/19 10:22:45;;;;;;;33.57;19.10;;;;;;;1.80;100.00;101838.50;4960625;28;20219;-71
2022/12/19 10:25:28;;;;;;;37.10;19.23;;;;;;;1.81;100.00;101832.66;4944690;28;20267;-73
2022/12/19 10:28:27;;;;;;;35.33;19.43;;;;;;;1.84;100.00;101837.91;4962242;28;20238;-73
2022/12/19 10:31:16;;;;;;;35.17;20.53;;;;;;;1.89;100.00;101825.63;4968348;28;20220;-74
2022/12/19 10:33:47;;;;;;;37.30;20.47;;;;;;;1.90;100.00;101819.78;4961851;28;20683;-73
2022/12/19 10:36:14;;;;;;;38.87;20.57;;;;;;;1.93;100.00;101820.03;4950724;28;20200;-73
2022/12/19 10:38:46;;;;;;;38.20;19.87;;;;;;;1.94;100.00;101814.19;4967947;28;20223;-73
2022/12/19 10:41:22;;;;;;;35.03;19.93;;;;;;;1.95;100.00;101809.25;4965652;28;20303;-74
2022/12/19 10:43:58;;;;;;;37.00;20.17;;;;;;;1.97;100.00;101807.69;4968266;28;20199;-72
2022/12/19 10:46:38;;;;;;;33.33;18.40;;;;;;;2.01;100.00;101814.72;4959177;28;20211;-73
2022/12/19 10:49:16;;;;;;;37.47;20.77;;;;;;;2.02;100.00;101805.50;4961466;28;20216;-72
2022/12/19 10:51:54;;;;;;;33.17;19.93;;;;;;;2.05;100.00;101795.59;4963112;28;20213;-73
2022/12/19 10:54:22;;;;;;;36.53;20.13;;;;;;;2.07;100.00;101797.44;4966874;28;20296;-72
2022/12/19 10:56:47;;;;;;;37.80;21.00;;;;;;;2.06;100.00;101794.84;4945768;28;20239;-73
2022/12/19 10:59:18;;;;;;;36.47;19.40;;;;;;;2.09;100.00;101798.44;4961324;28;20208;-73
2022/12/19 11:01:45;;;;;;;37.17;20.77;;;;;;;2.10;100.00;101786.66;4968008;28;20682;-73
2022/12/19 11:04:31;;;;;;;36.83;19.70;;;;;;;2.13;100.00;101784.38;4966558;28;20282;-73
2022/12/19 11:07:03;;;;;;;37.97;19.97;;;;;;;2.15;100.00;101777.78;4942409;28;20224;-73
2022/12/19 11:09:34;;;;;;;37.13;20.43;;;;;;;2.20;100.00;101776.44;4965405;28;20200;-73
2022/12/19 11:12:06;;;;;;;36.77;19.73;;;;;;;2.24;100.00;101770.78;4966905;28;20205;-74
2022/12/19 11:14:34;;;;;;;39.77;20.87;;;;;;;2.25;100.00;101760.78;4967851;28;20682;-73
2022/12/19 11:16:59;;;;;;;38.53;20.07;;;;;;;2.26;100.00;101767.59;4964242;28;20224;-72
2022/12/19 11:19:36;;;;;;;39.00;21.37;;;;;;;2.30;100.00;101769.56;4966430;28;20192;-73
2022/12/19 11:22:23;;;;;;;33.83;20.43;;;;;;;2.32;100.00;101762.09;4967255;28;20200;-73
2022/12/19 11:24:51;;;;;;;35.97;20.43;;;;;;;2.34;100.00;101758.88;4963923;28;20208;-73
2022/12/19 11:27:41;;;;;;;43.70;22.40;;;;;;;2.36;100.00;101751.41;4967195;28;20228;-73